sensor_id;sensor_type;location;lat;lon;timestamp;P1;durP1;ratioP1;P2;durP2;ratioP2
59024;SDS011;44806;48.008;13.666;2023-03-03T00:00:25;24.98;;;15.35;;
59024;SDS011;44806;48.008;13.666;2023-03-03T00:02:52;25.45;;;13.20;;
59024;SDS011;44806;48.008;13.666;2023-03-03T00:05:19;34.45;;;14.75;;
59024;SDS011;44806;48.008;13.666;2023-03-03T00:07:47;26.60;;;12.95;;
59024;SDS011;44806;48.008;13.666;2023-03-03T00:10:14;29.27;;;12.23;;
59024;SDS011;44806;48.008;13.666;2023-03-03T00:12:45;16.92;;;10.20;;
59024;SDS011;44806;48.008;13.666;2023-03-03T00:15:14;26.70;;;11.55;;
59024;SDS011;44806;48.008;13.666;2023-03-03T00:17:45;31.15;;;11.20;;
59024;SDS011;44806;48.008;13.666;2023-03-03T00:20:26;26.25;;;12.43;;
59024;SDS011;44806;48.008;13.666;2023-03-03T00:23:15;25.02;;;14.02;;
59024;SDS011;44806;48.008;13.666;2023-03-03T00:25:45;27.70;;;14.75;;
59024;SDS011;44806;48.008;13.666;2023-03-03T00:28:19;22.33;;;11.18;;
59024;SDS011;44806;48.008;13.666;2023-03-03T00:30:50;35.20;;;13.00;;
59024;SDS011;44806;48.008;13.666;2023-03-03T00:33:24;37.60;;;12.32;;
59024;SDS011;44806;48.008;13.666;2023-03-03T00:35:54;33.00;;;10.70;;
59024;SDS011;44806;48.008;13.666;2023-03-03T00:38:22;46.08;;;12.65;;
59024;SDS011;44806;48.008;13.666;2023-03-03T00:40:52;20.67;;;10.60;;
59024;SDS011;44806;48.008;13.666;2023-03-03T00:43:20;30.75;;;12.52;;
59024;SDS011;44806;48.008;13.666;2023-03-03T00:45:52;22.98;;;11.40;;
59024;SDS011;44806;48.008;13.666;2023-03-03T00:48:25;24.10;;;11.82;;
59024;SDS011;44806;48.008;13.666;2023-03-03T00:50:55;26.48;;;11.52;;
59024;SDS011;44806;48.008;13.666;2023-03-03T00:53:24;35.22;;;12.45;;
59024;SDS011;44806;48.008;13.666;2023-03-03T00:55:55;34.40;;;12.98;;
59024;SDS011;44806;48.008;13.666;2023-03-03T00:58:23;24.30;;;12.10;;
59024;SDS011;44806;48.008;13.666;2023-03-03T01:00:52;27.02;;;12.10;;
59024;SDS011;44806;48.008;13.666;2023-03-03T01:03:24;26.92;;;11.82;;
59024;SDS011;44806;48.008;13.666;2023-03-03T01:05:53;33.33;;;13.93;;
59024;SDS011;44806;48.008;13.666;2023-03-03T01:08:21;25.27;;;12.10;;
59024;SDS011;44806;48.008;13.666;2023-03-03T01:10:52;32.08;;;12.30;;
59024;SDS011;44806;48.008;13.666;2023-03-03T01:13:23;27.85;;;9.73;;
59024;SDS011;44806;48.008;13.666;2023-03-03T01:15:52;32.70;;;12.35;;
59024;SDS011;44806;48.008;13.666;2023-03-03T01:18:22;20.30;;;10.50;;
59024;SDS011;44806;48.008;13.666;2023-03-03T01:20:50;28.13;;;12.23;;
59024;SDS011;44806;48.008;13.666;2023-03-03T01:23:18;35.65;;;13.98;;
59024;SDS011;44806;48.008;13.666;2023-03-03T01:25:45;18.85;;;8.80;;
59024;SDS011;44806;48.008;13.666;2023-03-03T01:28:12;40.38;;;16.30;;
59024;SDS011;44806;48.008;13.666;2023-03-03T01:30:39;26.13;;;11.48;;
59024;SDS011;44806;48.008;13.666;2023-03-03T01:33:07;28.17;;;12.07;;
59024;SDS011;44806;48.008;13.666;2023-03-03T01:35:34;25.70;;;12.70;;
59024;SDS011;44806;48.008;13.666;2023-03-03T01:38:06;31.77;;;13.20;;
59024;SDS011;44806;48.008;13.666;2023-03-03T01:40:33;28.35;;;14.23;;
59024;SDS011;44806;48.008;13.666;2023-03-03T01:43:00;28.67;;;14.95;;
59024;SDS011;44806;48.008;13.666;2023-03-03T01:45:28;37.38;;;13.95;;
59024;SDS011;44806;48.008;13.666;2023-03-03T01:48:00;31.48;;;13.98;;
59024;SDS011;44806;48.008;13.666;2023-03-03T01:50:36;37.35;;;16.30;;
59024;SDS011;44806;48.008;13.666;2023-03-03T01:53:11;49.50;;;15.48;;
59024;SDS011;44806;48.008;13.666;2023-03-03T01:55:42;38.03;;;15.77;;
59024;SDS011;44806;48.008;13.666;2023-03-03T01:58:12;30.55;;;15.75;;
59024;SDS011;44806;48.008;13.666;2023-03-03T02:00:43;31.73;;;13.20;;
59024;SDS011;44806;48.008;13.666;2023-03-03T02:03:16;34.92;;;14.90;;
59024;SDS011;44806;48.008;13.666;2023-03-03T02:05:46;30.45;;;14.63;;
59024;SDS011;44806;48.008;13.666;2023-03-03T02:08:15;37.22;;;15.93;;
59024;SDS011;44806;48.008;13.666;2023-03-03T02:10:47;37.58;;;17.55;;
59024;SDS011;44806;48.008;13.666;2023-03-03T02:13:15;41.33;;;16.55;;
59024;SDS011;44806;48.008;13.666;2023-03-03T02:15:42;31.00;;;13.13;;
59024;SDS011;44806;48.008;13.666;2023-03-03T02:18:10;46.83;;;17.23;;
59024;SDS011;44806;48.008;13.666;2023-03-03T02:20:47;45.13;;;16.73;;
59024;SDS011;44806;48.008;13.666;2023-03-03T02:23:21;28.83;;;13.73;;
59024;SDS011;44806;48.008;13.666;2023-03-03T02:26:06;40.78;;;14.57;;
59024;SDS011;44806;48.008;13.666;2023-03-03T02:28:37;35.55;;;14.18;;
59024;SDS011;44806;48.008;13.666;2023-03-03T02:31:07;51.38;;;14.45;;
59024;SDS011;44806;48.008;13.666;2023-03-03T02:33:37;41.63;;;15.15;;
59024;SDS011;44806;48.008;13.666;2023-03-03T02:36:05;37.17;;;12.82;;
59024;SDS011;44806;48.008;13.666;2023-03-03T02:38:36;32.55;;;13.50;;
59024;SDS011;44806;48.008;13.666;2023-03-03T02:41:12;34.28;;;16.05;;
59024;SDS011;44806;48.008;13.666;2023-03-03T02:43:49;42.65;;;16.83;;
59024;SDS011;44806;48.008;13.666;2023-03-03T02:46:22;48.63;;;17.48;;
59024;SDS011;44806;48.008;13.666;2023-03-03T02:48:49;32.03;;;13.38;;
59024;SDS011;44806;48.008;13.666;2023-03-03T02:51:16;39.67;;;15.43;;
59024;SDS011;44806;48.008;13.666;2023-03-03T02:53:43;37.40;;;15.65;;
59024;SDS011;44806;48.008;13.666;2023-03-03T02:56:16;40.55;;;18.48;;
59024;SDS011;44806;48.008;13.666;2023-03-03T02:58:45;52.03;;;16.50;;
59024;SDS011;44806;48.008;13.666;2023-03-03T03:01:13;34.03;;;15.10;;
59024;SDS011;44806;48.008;13.666;2023-03-03T03:03:40;32.03;;;13.93;;
59024;SDS011;44806;48.008;13.666;2023-03-03T03:06:08;24.58;;;12.93;;
59024;SDS011;44806;48.008;13.666;2023-03-03T03:08:37;38.53;;;16.23;;
59024;SDS011;44806;48.008;13.666;2023-03-03T03:11:05;32.67;;;14.23;;
59024;SDS011;44806;48.008;13.666;2023-03-03T03:13:36;45.38;;;16.50;;
59024;SDS011;44806;48.008;13.666;2023-03-03T03:16:04;25.63;;;14.02;;
59024;SDS011;44806;48.008;13.666;2023-03-03T03:18:31;40.90;;;14.40;;
59024;SDS011;44806;48.008;13.666;2023-03-03T03:21:04;37.95;;;16.15;;
59024;SDS011;44806;48.008;13.666;2023-03-03T03:23:33;41.03;;;17.23;;
59024;SDS011;44806;48.008;13.666;2023-03-03T03:26:01;41.97;;;15.07;;
59024;SDS011;44806;48.008;13.666;2023-03-03T03:28:31;37.22;;;16.30;;
59024;SDS011;44806;48.008;13.666;2023-03-03T03:31:01;47.50;;;16.65;;
59024;SDS011;44806;48.008;13.666;2023-03-03T03:33:29;48.15;;;14.23;;
59024;SDS011;44806;48.008;13.666;2023-03-03T03:35:56;28.30;;;14.80;;
59024;SDS011;44806;48.008;13.666;2023-03-03T03:38:27;34.63;;;13.23;;
59024;SDS011;44806;48.008;13.666;2023-03-03T03:40:55;52.60;;;16.20;;
59024;SDS011;44806;48.008;13.666;2023-03-03T03:43:26;33.50;;;15.43;;
59024;SDS011;44806;48.008;13.666;2023-03-03T03:45:56;44.00;;;18.05;;
59024;SDS011;44806;48.008;13.666;2023-03-03T03:48:24;37.72;;;17.08;;
59024;SDS011;44806;48.008;13.666;2023-03-03T03:50:54;41.72;;;15.75;;
59024;SDS011;44806;48.008;13.666;2023-03-03T03:53:22;43.78;;;18.38;;
59024;SDS011;44806;48.008;13.666;2023-03-03T03:55:49;63.10;;;17.13;;
59024;SDS011;44806;48.008;13.666;2023-03-03T03:58:16;43.10;;;15.27;;
59024;SDS011;44806;48.008;13.666;2023-03-03T04:00:46;37.17;;;14.43;;
59024;SDS011;44806;48.008;13.666;2023-03-03T04:03:14;45.28;;;15.13;;
59024;SDS011;44806;48.008;13.666;2023-03-03T04:05:43;59.70;;;16.45;;
59024;SDS011;44806;48.008;13.666;2023-03-03T04:08:10;31.77;;;14.25;;
59024;SDS011;44806;48.008;13.666;2023-03-03T04:10:38;37.50;;;14.35;;
59024;SDS011;44806;48.008;13.666;2023-03-03T04:13:05;43.75;;;17.13;;
59024;SDS011;44806;48.008;13.666;2023-03-03T04:15:33;51.80;;;16.75;;
59024;SDS011;44806;48.008;13.666;2023-03-03T04:18:00;37.80;;;16.85;;
59024;SDS011;44806;48.008;13.666;2023-03-03T04:20:30;39.60;;;15.50;;
59024;SDS011;44806;48.008;13.666;2023-03-03T04:22:59;32.53;;;16.98;;
59024;SDS011;44806;48.008;13.666;2023-03-03T04:25:26;38.85;;;17.45;;
59024;SDS011;44806;48.008;13.666;2023-03-03T04:27:53;41.05;;;18.95;;
59024;SDS011;44806;48.008;13.666;2023-03-03T04:30:26;42.15;;;19.08;;
59024;SDS011;44806;48.008;13.666;2023-03-03T04:32:54;42.10;;;16.98;;
59024;SDS011;44806;48.008;13.666;2023-03-03T04:35:21;37.45;;;15.57;;
59024;SDS011;44806;48.008;13.666;2023-03-03T04:37:48;34.95;;;16.08;;
59024;SDS011;44806;48.008;13.666;2023-03-03T04:40:17;52.78;;;16.38;;
59024;SDS011;44806;48.008;13.666;2023-03-03T04:42:44;41.55;;;16.52;;
59024;SDS011;44806;48.008;13.666;2023-03-03T04:45:12;43.58;;;18.30;;
59024;SDS011;44806;48.008;13.666;2023-03-03T04:47:40;40.58;;;14.40;;
59024;SDS011;44806;48.008;13.666;2023-03-03T04:50:08;41.72;;;16.77;;
59024;SDS011;44806;48.008;13.666;2023-03-03T04:52:36;33.05;;;14.35;;
59024;SDS011;44806;48.008;13.666;2023-03-03T04:55:05;37.67;;;16.38;;
59024;SDS011;44806;48.008;13.666;2023-03-03T04:57:35;39.17;;;17.67;;
59024;SDS011;44806;48.008;13.666;2023-03-03T05:00:03;48.13;;;17.17;;
59024;SDS011;44806;48.008;13.666;2023-03-03T05:02:32;32.30;;;15.50;;
59024;SDS011;44806;48.008;13.666;2023-03-03T05:04:59;37.83;;;15.63;;
59024;SDS011;44806;48.008;13.666;2023-03-03T05:07:26;30.50;;;15.48;;
59024;SDS011;44806;48.008;13.666;2023-03-03T05:09:54;43.35;;;16.45;;
59024;SDS011;44806;48.008;13.666;2023-03-03T05:12:21;32.35;;;17.65;;
59024;SDS011;44806;48.008;13.666;2023-03-03T05:14:50;41.75;;;17.38;;
59024;SDS011;44806;48.008;13.666;2023-03-03T05:17:18;27.35;;;14.18;;
59024;SDS011;44806;48.008;13.666;2023-03-03T05:19:45;40.58;;;16.58;;
59024;SDS011;44806;48.008;13.666;2023-03-03T05:22:15;40.58;;;17.25;;
59024;SDS011;44806;48.008;13.666;2023-03-03T05:24:45;33.92;;;16.25;;
59024;SDS011;44806;48.008;13.666;2023-03-03T05:27:14;35.00;;;15.18;;
59024;SDS011;44806;48.008;13.666;2023-03-03T05:29:44;42.53;;;16.33;;
59024;SDS011;44806;48.008;13.666;2023-03-03T05:32:14;33.83;;;15.82;;
59024;SDS011;44806;48.008;13.666;2023-03-03T05:34:41;37.85;;;16.77;;
59024;SDS011;44806;48.008;13.666;2023-03-03T05:37:08;44.00;;;17.13;;
59024;SDS011;44806;48.008;13.666;2023-03-03T05:39:36;29.65;;;13.73;;
59024;SDS011;44806;48.008;13.666;2023-03-03T05:42:03;29.23;;;14.38;;
59024;SDS011;44806;48.008;13.666;2023-03-03T05:44:30;37.58;;;16.70;;
59024;SDS011;44806;48.008;13.666;2023-03-03T05:46:58;35.00;;;16.30;;
59024;SDS011;44806;48.008;13.666;2023-03-03T05:49:26;37.67;;;15.43;;
59024;SDS011;44806;48.008;13.666;2023-03-03T05:51:54;32.70;;;14.32;;
59024;SDS011;44806;48.008;13.666;2023-03-03T05:54:21;45.75;;;14.98;;
59024;SDS011;44806;48.008;13.666;2023-03-03T05:56:48;45.15;;;16.08;;
59024;SDS011;44806;48.008;13.666;2023-03-03T05:59:15;30.55;;;14.93;;
59024;SDS011;44806;48.008;13.666;2023-03-03T06:01:43;49.85;;;15.38;;
59024;SDS011;44806;48.008;13.666;2023-03-03T06:04:10;38.75;;;12.32;;
59024;SDS011;44806;48.008;13.666;2023-03-03T06:06:39;33.25;;;16.85;;
59024;SDS011;44806;48.008;13.666;2023-03-03T06:09:09;42.35;;;14.65;;
59024;SDS011;44806;48.008;13.666;2023-03-03T06:11:40;28.90;;;14.35;;
59024;SDS011;44806;48.008;13.666;2023-03-03T06:14:07;25.58;;;11.68;;
59024;SDS011;44806;48.008;13.666;2023-03-03T06:16:37;49.97;;;14.98;;
59024;SDS011;44806;48.008;13.666;2023-03-03T06:19:04;49.08;;;14.48;;
59024;SDS011;44806;48.008;13.666;2023-03-03T06:21:31;41.15;;;14.60;;
59024;SDS011;44806;48.008;13.666;2023-03-03T06:24:00;25.88;;;13.27;;
59024;SDS011;44806;48.008;13.666;2023-03-03T06:26:27;30.45;;;15.02;;
59024;SDS011;44806;48.008;13.666;2023-03-03T06:28:56;34.35;;;15.57;;
59024;SDS011;44806;48.008;13.666;2023-03-03T06:31:23;31.73;;;14.73;;
59024;SDS011;44806;48.008;13.666;2023-03-03T06:33:54;28.55;;;14.32;;
59024;SDS011;44806;48.008;13.666;2023-03-03T06:36:21;61.55;;;17.05;;
59024;SDS011;44806;48.008;13.666;2023-03-03T06:38:49;47.25;;;16.25;;
59024;SDS011;44806;48.008;13.666;2023-03-03T06:41:18;35.53;;;13.68;;
59024;SDS011;44806;48.008;13.666;2023-03-03T06:43:45;36.42;;;13.38;;
59024;SDS011;44806;48.008;13.666;2023-03-03T06:46:13;33.75;;;14.07;;
59024;SDS011;44806;48.008;13.666;2023-03-03T06:48:43;47.05;;;14.48;;
59024;SDS011;44806;48.008;13.666;2023-03-03T06:51:16;26.48;;;12.27;;
59024;SDS011;44806;48.008;13.666;2023-03-03T06:53:49;30.60;;;14.65;;
59024;SDS011;44806;48.008;13.666;2023-03-03T06:56:22;28.85;;;15.90;;
59024;SDS011;44806;48.008;13.666;2023-03-03T06:58:52;33.63;;;15.10;;
59024;SDS011;44806;48.008;13.666;2023-03-03T07:01:20;31.33;;;16.25;;
59024;SDS011;44806;48.008;13.666;2023-03-03T07:03:50;37.85;;;16.75;;
59024;SDS011;44806;48.008;13.666;2023-03-03T07:06:20;29.23;;;14.23;;
59024;SDS011;44806;48.008;13.666;2023-03-03T07:08:48;33.03;;;18.05;;
59024;SDS011;44806;48.008;13.666;2023-03-03T07:11:18;40.55;;;17.20;;
59024;SDS011;44806;48.008;13.666;2023-03-03T07:13:49;39.53;;;17.75;;
59024;SDS011;44806;48.008;13.666;2023-03-03T07:16:17;33.00;;;17.40;;
59024;SDS011;44806;48.008;13.666;2023-03-03T07:18:49;34.35;;;19.00;;
59024;SDS011;44806;48.008;13.666;2023-03-03T07:21:18;43.25;;;20.73;;
59024;SDS011;44806;48.008;13.666;2023-03-03T07:23:48;42.65;;;22.88;;
59024;SDS011;44806;48.008;13.666;2023-03-03T07:26:16;39.58;;;16.42;;
59024;SDS011;44806;48.008;13.666;2023-03-03T07:28:50;50.10;;;18.30;;
59024;SDS011;44806;48.008;13.666;2023-03-03T07:31:24;45.38;;;19.17;;
59024;SDS011;44806;48.008;13.666;2023-03-03T07:36:30;49.55;;;23.10;;
59024;SDS011;44806;48.008;13.666;2023-03-03T07:39:02;37.08;;;16.90;;
59024;SDS011;44806;48.008;13.666;2023-03-03T07:41:41;40.67;;;22.38;;
59024;SDS011;44806;48.008;13.666;2023-03-03T07:44:14;36.80;;;18.30;;
59024;SDS011;44806;48.008;13.666;2023-03-03T07:46:46;38.72;;;18.38;;
59024;SDS011;44806;48.008;13.666;2023-03-03T07:49:20;43.47;;;18.33;;
59024;SDS011;44806;48.008;13.666;2023-03-03T07:51:51;34.00;;;15.52;;
59024;SDS011;44806;48.008;13.666;2023-03-03T07:54:26;43.42;;;20.23;;
59024;SDS011;44806;48.008;13.666;2023-03-03T07:56:57;29.30;;;14.07;;
59024;SDS011;44806;48.008;13.666;2023-03-03T07:59:34;43.75;;;16.95;;
59024;SDS011;44806;48.008;13.666;2023-03-03T08:02:01;46.42;;;19.75;;
59024;SDS011;44806;48.008;13.666;2023-03-03T08:04:41;34.72;;;17.83;;
59024;SDS011;44806;48.008;13.666;2023-03-03T08:07:15;39.67;;;17.25;;
59024;SDS011;44806;48.008;13.666;2023-03-03T08:09:46;42.67;;;17.50;;
59024;SDS011;44806;48.008;13.666;2023-03-03T08:12:19;32.88;;;18.25;;
59024;SDS011;44806;48.008;13.666;2023-03-03T08:15:19;37.80;;;16.88;;
59024;SDS011;44806;48.008;13.666;2023-03-03T08:17:48;40.65;;;18.50;;
59024;SDS011;44806;48.008;13.666;2023-03-03T08:23:10;43.08;;;21.50;;
59024;SDS011;44806;48.008;13.666;2023-03-03T08:25:38;36.88;;;18.80;;
59024;SDS011;44806;48.008;13.666;2023-03-03T08:28:06;33.70;;;17.10;;
59024;SDS011;44806;48.008;13.666;2023-03-03T08:30:35;45.00;;;24.70;;
59024;SDS011;44806;48.008;13.666;2023-03-03T08:33:03;39.95;;;18.65;;
59024;SDS011;44806;48.008;13.666;2023-03-03T08:35:30;41.70;;;19.92;;
59024;SDS011;44806;48.008;13.666;2023-03-03T08:37:57;41.60;;;20.98;;
59024;SDS011;44806;48.008;13.666;2023-03-03T08:40:25;35.88;;;18.55;;
59024;SDS011;44806;48.008;13.666;2023-03-03T08:42:53;32.90;;;17.33;;
59024;SDS011;44806;48.008;13.666;2023-03-03T08:45:22;42.67;;;19.83;;
59024;SDS011;44806;48.008;13.666;2023-03-03T08:47:51;36.58;;;20.10;;
59024;SDS011;44806;48.008;13.666;2023-03-03T08:50:18;36.47;;;20.73;;
59024;SDS011;44806;48.008;13.666;2023-03-03T08:52:46;39.67;;;21.02;;
59024;SDS011;44806;48.008;13.666;2023-03-03T08:55:16;51.92;;;25.08;;
59024;SDS011;44806;48.008;13.666;2023-03-03T08:57:44;36.53;;;21.60;;
59024;SDS011;44806;48.008;13.666;2023-03-03T09:00:12;46.90;;;20.92;;
59024;SDS011;44806;48.008;13.666;2023-03-03T09:02:42;40.80;;;19.05;;
59024;SDS011;44806;48.008;13.666;2023-03-03T09:05:11;40.50;;;21.83;;
59024;SDS011;44806;48.008;13.666;2023-03-03T09:07:39;44.35;;;24.60;;
59024;SDS011;44806;48.008;13.666;2023-03-03T09:10:11;48.63;;;24.45;;
59024;SDS011;44806;48.008;13.666;2023-03-03T09:12:41;33.33;;;16.48;;
59024;SDS011;44806;48.008;13.666;2023-03-03T09:15:14;37.35;;;20.85;;
59024;SDS011;44806;48.008;13.666;2023-03-03T09:17:45;41.88;;;22.17;;
59024;SDS011;44806;48.008;13.666;2023-03-03T09:20:20;53.70;;;25.10;;
59024;SDS011;44806;48.008;13.666;2023-03-03T09:22:57;50.17;;;26.58;;
59024;SDS011;44806;48.008;13.666;2023-03-03T09:25:28;62.20;;;29.25;;
59024;SDS011;44806;48.008;13.666;2023-03-03T09:27:58;50.60;;;26.73;;
59024;SDS011;44806;48.008;13.666;2023-03-03T09:30:29;44.17;;;21.38;;
59024;SDS011;44806;48.008;13.666;2023-03-03T09:33:19;41.45;;;21.17;;
59024;SDS011;44806;48.008;13.666;2023-03-03T09:35:53;31.25;;;15.32;;
59024;SDS011;44806;48.008;13.666;2023-03-03T09:38:28;43.58;;;21.83;;
59024;SDS011;44806;48.008;13.666;2023-03-03T09:41:04;41.70;;;18.40;;
59024;SDS011;44806;48.008;13.666;2023-03-03T09:43:44;42.75;;;22.80;;
59024;SDS011;44806;48.008;13.666;2023-03-03T09:46:25;39.05;;;23.48;;
59024;SDS011;44806;48.008;13.666;2023-03-03T09:49:04;43.22;;;23.92;;
59024;SDS011;44806;48.008;13.666;2023-03-03T09:51:48;42.45;;;22.33;;
59024;SDS011;44806;48.008;13.666;2023-03-03T09:54:31;34.97;;;17.98;;
59024;SDS011;44806;48.008;13.666;2023-03-03T09:57:15;60.70;;;30.02;;
59024;SDS011;44806;48.008;13.666;2023-03-03T09:59:50;61.42;;;29.85;;
59024;SDS011;44806;48.008;13.666;2023-03-03T10:02:37;48.28;;;24.23;;
59024;SDS011;44806;48.008;13.666;2023-03-03T10:05:18;50.72;;;29.60;;
59024;SDS011;44806;48.008;13.666;2023-03-03T10:07:58;47.08;;;21.50;;
59024;SDS011;44806;48.008;13.666;2023-03-03T10:10:46;58.97;;;29.00;;
59024;SDS011;44806;48.008;13.666;2023-03-03T10:13:22;44.22;;;20.73;;
59024;SDS011;44806;48.008;13.666;2023-03-03T10:16:04;46.30;;;20.30;;
59024;SDS011;44806;48.008;13.666;2023-03-03T10:18:43;49.83;;;26.25;;
59024;SDS011;44806;48.008;13.666;2023-03-03T10:21:17;39.88;;;20.00;;
59024;SDS011;44806;48.008;13.666;2023-03-03T10:23:55;59.80;;;28.23;;
59024;SDS011;44806;48.008;13.666;2023-03-03T10:26:46;50.53;;;23.40;;
59024;SDS011;44806;48.008;13.666;2023-03-03T10:29:24;39.42;;;21.50;;
59024;SDS011;44806;48.008;13.666;2023-03-03T10:32:02;45.05;;;20.65;;
59024;SDS011;44806;48.008;13.666;2023-03-03T10:35:01;46.70;;;23.60;;
59024;SDS011;44806;48.008;13.666;2023-03-03T10:37:37;49.00;;;25.25;;
59024;SDS011;44806;48.008;13.666;2023-03-03T10:40:16;46.78;;;23.23;;
59024;SDS011;44806;48.008;13.666;2023-03-03T10:49:14;43.95;;;25.70;;
59024;SDS011;44806;48.008;13.666;2023-03-03T10:51:55;49.10;;;25.83;;
59024;SDS011;44806;48.008;13.666;2023-03-03T10:54:37;48.30;;;26.05;;
59024;SDS011;44806;48.008;13.666;2023-03-03T10:57:32;43.22;;;22.20;;
59024;SDS011;44806;48.008;13.666;2023-03-03T11:00:10;44.95;;;20.73;;
59024;SDS011;44806;48.008;13.666;2023-03-03T11:02:48;46.78;;;26.05;;
59024;SDS011;44806;48.008;13.666;2023-03-03T11:05:42;37.05;;;20.52;;
59024;SDS011;44806;48.008;13.666;2023-03-03T11:08:14;46.85;;;25.20;;
59024;SDS011;44806;48.008;13.666;2023-03-03T11:10:50;48.25;;;26.48;;
59024;SDS011;44806;48.008;13.666;2023-03-03T11:13:27;44.25;;;23.55;;
59024;SDS011;44806;48.008;13.666;2023-03-03T11:16:08;51.97;;;25.92;;
59024;SDS011;44806;48.008;13.666;2023-03-03T11:18:49;45.15;;;22.50;;
59024;SDS011;44806;48.008;13.666;2023-03-03T11:21:28;62.90;;;31.10;;
59024;SDS011;44806;48.008;13.666;2023-03-03T11:24:10;43.80;;;23.90;;
59024;SDS011;44806;48.008;13.666;2023-03-03T11:26:50;52.30;;;27.55;;
59024;SDS011;44806;48.008;13.666;2023-03-03T11:29:37;64.57;;;32.47;;
59024;SDS011;44806;48.008;13.666;2023-03-03T11:32:23;54.53;;;28.15;;
59024;SDS011;44806;48.008;13.666;2023-03-03T11:35:05;67.72;;;32.88;;
59024;SDS011;44806;48.008;13.666;2023-03-03T11:37:44;58.78;;;31.67;;
59024;SDS011;44806;48.008;13.666;2023-03-03T11:40:19;43.75;;;24.48;;
59024;SDS011;44806;48.008;13.666;2023-03-03T11:42:57;38.15;;;21.02;;
59024;SDS011;44806;48.008;13.666;2023-03-03T11:45:34;53.13;;;23.25;;
59024;SDS011;44806;48.008;13.666;2023-03-03T11:48:10;47.30;;;25.48;;
59024;SDS011;44806;48.008;13.666;2023-03-03T11:50:42;53.40;;;27.90;;
59024;SDS011;44806;48.008;13.666;2023-03-03T11:53:30;58.95;;;32.13;;
59024;SDS011;44806;48.008;13.666;2023-03-03T11:56:08;47.03;;;22.83;;
59024;SDS011;44806;48.008;13.666;2023-03-03T11:58:47;62.50;;;33.63;;
59024;SDS011;44806;48.008;13.666;2023-03-03T12:01:25;56.78;;;27.13;;
59024;SDS011;44806;48.008;13.666;2023-03-03T12:03:56;85.85;;;40.05;;
59024;SDS011;44806;48.008;13.666;2023-03-03T12:06:29;60.17;;;33.05;;
59024;SDS011;44806;48.008;13.666;2023-03-03T12:12:07;51.47;;;27.60;;
59024;SDS011;44806;48.008;13.666;2023-03-03T12:14:50;88.13;;;34.42;;
59024;SDS011;44806;48.008;13.666;2023-03-03T12:17:30;58.80;;;34.65;;
59024;SDS011;44806;48.008;13.666;2023-03-03T12:20:20;52.25;;;26.40;;
59024;SDS011;44806;48.008;13.666;2023-03-03T12:23:03;61.25;;;30.63;;
59024;SDS011;44806;48.008;13.666;2023-03-03T12:25:43;66.45;;;36.85;;
59024;SDS011;44806;48.008;13.666;2023-03-03T12:28:14;61.88;;;36.97;;
59024;SDS011;44806;48.008;13.666;2023-03-03T12:30:59;51.72;;;21.70;;
59024;SDS011;44806;48.008;13.666;2023-03-03T12:36:23;79.15;;;34.97;;
59024;SDS011;44806;48.008;13.666;2023-03-03T12:39:06;45.45;;;24.13;;
59024;SDS011;44806;48.008;13.666;2023-03-03T12:41:40;51.45;;;27.38;;
59024;SDS011;44806;48.008;13.666;2023-03-03T12:44:17;80.15;;;37.60;;
59024;SDS011;44806;48.008;13.666;2023-03-03T12:46:52;43.10;;;24.38;;
59024;SDS011;44806;48.008;13.666;2023-03-03T12:49:27;70.18;;;37.38;;
59024;SDS011;44806;48.008;13.666;2023-03-03T12:52:07;71.22;;;37.80;;
59024;SDS011;44806;48.008;13.666;2023-03-03T12:54:49;48.05;;;22.40;;
59024;SDS011;44806;48.008;13.666;2023-03-03T12:57:28;66.82;;;32.45;;
59024;SDS011;44806;48.008;13.666;2023-03-03T13:02:55;65.95;;;33.53;;
59024;SDS011;44806;48.008;13.666;2023-03-03T13:05:33;80.47;;;33.58;;
59024;SDS011;44806;48.008;13.666;2023-03-03T13:08:22;82.68;;;41.30;;
59024;SDS011;44806;48.008;13.666;2023-03-03T13:11:14;47.00;;;22.92;;
59024;SDS011;44806;48.008;13.666;2023-03-03T13:14:00;46.10;;;24.40;;
59024;SDS011;44806;48.008;13.666;2023-03-03T13:16:37;51.38;;;28.48;;
59024;SDS011;44806;48.008;13.666;2023-03-03T13:19:13;46.42;;;26.20;;
59024;SDS011;44806;48.008;13.666;2023-03-03T13:21:46;46.25;;;23.83;;
59024;SDS011;44806;48.008;13.666;2023-03-03T13:24:20;60.40;;;32.05;;
59024;SDS011;44806;48.008;13.666;2023-03-03T13:26:53;41.55;;;22.60;;
59024;SDS011;44806;48.008;13.666;2023-03-03T13:29:24;65.80;;;36.28;;
59024;SDS011;44806;48.008;13.666;2023-03-03T13:31:56;64.25;;;33.42;;
59024;SDS011;44806;48.008;13.666;2023-03-03T13:34:29;48.83;;;25.05;;
59024;SDS011;44806;48.008;13.666;2023-03-03T13:37:07;43.03;;;20.30;;
59024;SDS011;44806;48.008;13.666;2023-03-03T13:39:49;28.27;;;17.48;;
59024;SDS011;44806;48.008;13.666;2023-03-03T13:42:27;56.17;;;27.52;;
59024;SDS011;44806;48.008;13.666;2023-03-03T13:44:59;72.72;;;34.53;;
59024;SDS011;44806;48.008;13.666;2023-03-03T13:47:37;55.25;;;29.23;;
59024;SDS011;44806;48.008;13.666;2023-03-03T13:50:17;43.30;;;23.13;;
59024;SDS011;44806;48.008;13.666;2023-03-03T13:52:52;54.92;;;27.00;;
59024;SDS011;44806;48.008;13.666;2023-03-03T13:55:31;37.55;;;20.85;;
59024;SDS011;44806;48.008;13.666;2023-03-03T13:58:04;46.15;;;20.52;;
59024;SDS011;44806;48.008;13.666;2023-03-03T14:00:50;47.67;;;25.38;;
59024;SDS011;44806;48.008;13.666;2023-03-03T14:06:25;32.85;;;18.70;;
59024;SDS011;44806;48.008;13.666;2023-03-03T14:08:58;105.00;;;40.10;;
59024;SDS011;44806;48.008;13.666;2023-03-03T14:11:45;47.65;;;24.98;;
59024;SDS011;44806;48.008;13.666;2023-03-03T14:14:34;45.80;;;27.65;;
59024;SDS011;44806;48.008;13.666;2023-03-03T14:17:16;57.45;;;34.85;;
59024;SDS011;44806;48.008;13.666;2023-03-03T14:19:51;41.75;;;23.65;;
59024;SDS011;44806;48.008;13.666;2023-03-03T14:22:29;54.88;;;32.97;;
59024;SDS011;44806;48.008;13.666;2023-03-03T14:25:08;73.90;;;35.50;;
59024;SDS011;44806;48.008;13.666;2023-03-03T14:27:53;126.75;;;60.15;;
59024;SDS011;44806;48.008;13.666;2023-03-03T14:30:29;98.90;;;40.80;;
59024;SDS011;44806;48.008;13.666;2023-03-03T14:33:00;83.22;;;36.08;;
59024;SDS011;44806;48.008;13.666;2023-03-03T14:35:34;38.60;;;21.00;;
59024;SDS011;44806;48.008;13.666;2023-03-03T14:38:08;75.80;;;35.30;;
59024;SDS011;44806;48.008;13.666;2023-03-03T14:45:50;138.88;;;68.45;;
59024;SDS011;44806;48.008;13.666;2023-03-03T14:48:19;42.63;;;22.52;;
59024;SDS011;44806;48.008;13.666;2023-03-03T14:50:49;39.55;;;24.95;;
59024;SDS011;44806;48.008;13.666;2023-03-03T14:53:22;72.57;;;33.65;;
59024;SDS011;44806;48.008;13.666;2023-03-03T14:58:52;43.75;;;23.15;;
59024;SDS011;44806;48.008;13.666;2023-03-03T15:01:36;83.15;;;33.85;;
59024;SDS011;44806;48.008;13.666;2023-03-03T15:04:09;48.63;;;25.15;;
59024;SDS011;44806;48.008;13.666;2023-03-03T15:06:53;59.78;;;31.48;;
59024;SDS011;44806;48.008;13.666;2023-03-03T15:09:26;55.42;;;29.25;;
59024;SDS011;44806;48.008;13.666;2023-03-03T15:12:01;48.97;;;27.17;;